sensor_id;sensor_type;location;lat;lon;timestamp;pressure;altitude;pressure_sealevel;temperature
67509;BMP280;54354;44.724;11.284;2024-03-23T00:52:56;101432.59;;;18.40
67509;BMP280;54354;44.724;11.284;2024-03-23T00:55:22;101431.13;;;18.39
67509;BMP280;54354;44.724;11.284;2024-03-23T00:57:47;101426.66;;;18.36
67509;BMP280;54354;44.724;11.284;2024-03-23T01:00:13;101433.28;;;18.31
67509;BMP280;54354;44.724;11.284;2024-03-23T01:02:38;101430.03;;;18.27
67509;BMP280;54354;44.724;11.284;2024-03-23T01:05:04;101426.56;;;18.27
67509;BMP280;54354;44.724;11.284;2024-03-23T01:07:29;101422.09;;;18.24
67509;BMP280;54354;44.724;11.284;2024-03-23T01:09:54;101416.88;;;18.20
67509;BMP280;54354;44.724;11.284;2024-03-23T01:12:20;101419.41;;;18.14
67509;BMP280;54354;44.724;11.284;2024-03-23T01:14:45;101418.81;;;18.10
67509;BMP280;54354;44.724;11.284;2024-03-23T01:17:10;101424.31;;;18.07
67509;BMP280;54354;44.724;11.284;2024-03-23T01:19:36;101423.66;;;18.03
67509;BMP280;54354;44.724;11.284;2024-03-23T01:22:01;101413.97;;;17.96
67509;BMP280;54354;44.724;11.284;2024-03-23T01:24:27;101414.97;;;17.90
67509;BMP280;54354;44.724;11.284;2024-03-23T01:26:52;101412.88;;;17.84
67509;BMP280;54354;44.724;11.284;2024-03-23T01:29:17;101414.50;;;17.82
67509;BMP280;54354;44.724;11.284;2024-03-23T01:31:43;101414.94;;;17.80
67509;BMP280;54354;44.724;11.284;2024-03-23T01:34:08;101403.47;;;17.80
67509;BMP280;54354;44.724;11.284;2024-03-23T01:36:33;101418.50;;;17.77
67509;BMP280;54354;44.724;11.284;2024-03-23T01:38:59;101408.97;;;17.76
67509;BMP280;54354;44.724;11.284;2024-03-23T01:41:24;101407.19;;;17.73
67509;BMP280;54354;44.724;11.284;2024-03-23T01:43:50;101408.34;;;17.72
67509;BMP280;54354;44.724;11.284;2024-03-23T01:46:15;101406.41;;;17.73
67509;BMP280;54354;44.724;11.284;2024-03-23T01:48:41;101404.19;;;17.71
67509;BMP280;54354;44.724;11.284;2024-03-23T01:51:06;101403.84;;;17.69
67509;BMP280;54354;44.724;11.284;2024-03-23T01:53:32;101407.00;;;17.68
67509;BMP280;54354;44.724;11.284;2024-03-23T01:55:58;101402.81;;;17.67
67509;BMP280;54354;44.724;11.284;2024-03-23T01:58:23;101397.47;;;17.67
67509;BMP280;54354;44.724;11.284;2024-03-23T02:00:48;101405.94;;;17.65
67509;BMP280;54354;44.724;11.284;2024-03-23T02:03:27;101407.75;;;17.68
67509;BMP280;54354;44.724;11.284;2024-03-23T02:05:53;101400.88;;;17.67
67509;BMP280;54354;44.724;11.284;2024-03-23T02:08:18;101395.53;;;17.67
67509;BMP280;54354;44.724;11.284;2024-03-23T02:10:45;101391.50;;;17.63
67509;BMP280;54354;44.724;11.284;2024-03-23T02:13:10;101388.81;;;17.63
67509;BMP280;54354;44.724;11.284;2024-03-23T02:15:35;101387.00;;;17.59
67509;BMP280;54354;44.724;11.284;2024-03-23T02:18:01;101379.84;;;17.56
67509;BMP280;54354;44.724;11.284;2024-03-23T02:20:26;101376.44;;;17.56
67509;BMP280;54354;44.724;11.284;2024-03-23T02:22:53;101377.91;;;17.57
67509;BMP280;54354;44.724;11.284;2024-03-23T02:25:18;101367.50;;;17.59
67509;BMP280;54354;44.724;11.284;2024-03-23T02:27:43;101360.22;;;17.59
67509;BMP280;54354;44.724;11.284;2024-03-23T02:30:09;101361.41;;;17.58
67509;BMP280;54354;44.724;11.284;2024-03-23T02:32:34;101358.84;;;17.55
67509;BMP280;54354;44.724;11.284;2024-03-23T02:34:59;101354.06;;;17.50
67509;BMP280;54354;44.724;11.284;2024-03-23T02:37:25;101360.31;;;17.47
67509;BMP280;54354;44.724;11.284;2024-03-23T02:39:50;101363.41;;;17.45
67509;BMP280;54354;44.724;11.284;2024-03-23T02:42:15;101358.38;;;17.47
67509;BMP280;54354;44.724;11.284;2024-03-23T02:44:43;101364.47;;;17.48
67509;BMP280;54354;44.724;11.284;2024-03-23T02:47:08;101354.97;;;17.47
67509;BMP280;54354;44.724;11.284;2024-03-23T02:49:33;101362.22;;;17.46
67509;BMP280;54354;44.724;11.284;2024-03-23T02:51:59;101353.03;;;17.47
67509;BMP280;54354;44.724;11.284;2024-03-23T02:54:24;101353.31;;;17.49
67509;BMP280;54354;44.724;11.284;2024-03-23T02:56:49;101350.66;;;17.49
67509;BMP280;54354;44.724;11.284;2024-03-23T02:59:15;101340.38;;;17.48
67509;BMP280;54354;44.724;11.284;2024-03-23T03:01:40;101333.34;;;17.41
67509;BMP280;54354;44.724;11.284;2024-03-23T03:04:05;101339.44;;;17.42
67509;BMP280;54354;44.724;11.284;2024-03-23T03:06:31;101332.63;;;17.41
67509;BMP280;54354;44.724;11.284;2024-03-23T03:08:56;101335.28;;;17.41
67509;BMP280;54354;44.724;11.284;2024-03-23T03:11:21;101330.34;;;17.39
67509;BMP280;54354;44.724;11.284;2024-03-23T03:13:47;101330.50;;;17.36
67509;BMP280;54354;44.724;11.284;2024-03-23T03:16:12;101321.84;;;17.31
67509;BMP280;54354;44.724;11.284;2024-03-23T03:18:38;101324.66;;;17.28
67509;BMP280;54354;44.724;11.284;2024-03-23T03:21:06;101332.38;;;17.26
67509;BMP280;54354;44.724;11.284;2024-03-23T03:23:38;101328.94;;;17.25
67509;BMP280;54354;44.724;11.284;2024-03-23T03:26:04;101339.97;;;17.27
67509;BMP280;54354;44.724;11.284;2024-03-23T03:28:30;101345.63;;;17.29
67509;BMP280;54354;44.724;11.284;2024-03-23T03:30:56;101331.06;;;17.30
67509;BMP280;54354;44.724;11.284;2024-03-23T03:33:21;101334.16;;;17.29
67509;BMP280;54354;44.724;11.284;2024-03-23T03:35:47;101334.16;;;17.29
67509;BMP280;54354;44.724;11.284;2024-03-23T03:38:12;101321.22;;;17.27
67509;BMP280;54354;44.724;11.284;2024-03-23T03:40:37;101319.09;;;17.22
67509;BMP280;54354;44.724;11.284;2024-03-23T03:43:03;101317.44;;;17.16
67509;BMP280;54354;44.724;11.284;2024-03-23T03:45:28;101318.31;;;17.13
67509;BMP280;54354;44.724;11.284;2024-03-23T03:47:54;101321.97;;;17.06
67509;BMP280;54354;44.724;11.284;2024-03-23T03:50:19;101322.84;;;17.03
67509;BMP280;54354;44.724;11.284;2024-03-23T03:52:44;101321.78;;;17.00
67509;BMP280;54354;44.724;11.284;2024-03-23T03:55:14;101318.03;;;16.98
67509;BMP280;54354;44.724;11.284;2024-03-23T03:57:39;101314.75;;;16.94
67509;BMP280;54354;44.724;11.284;2024-03-23T04:00:05;101309.84;;;16.92
67509;BMP280;54354;44.724;11.284;2024-03-23T04:02:31;101299.72;;;16.87
67509;BMP280;54354;44.724;11.284;2024-03-23T04:04:56;101302.19;;;16.82
67509;BMP280;54354;44.724;11.284;2024-03-23T04:07:21;101302.00;;;16.76
67509;BMP280;54354;44.724;11.284;2024-03-23T04:09:49;101298.25;;;16.73
67509;BMP280;54354;44.724;11.284;2024-03-23T04:12:14;101304.06;;;16.72
67509;BMP280;54354;44.724;11.284;2024-03-23T04:14:40;101304.78;;;16.72
67509;BMP280;54354;44.724;11.284;2024-03-23T04:17:06;101300.91;;;16.73
67509;BMP280;54354;44.724;11.284;2024-03-23T04:19:31;101299.75;;;16.74
67509;BMP280;54354;44.724;11.284;2024-03-23T04:21:56;101298.84;;;16.77
67509;BMP280;54354;44.724;11.284;2024-03-23T04:24:22;101286.69;;;16.76
67509;BMP280;54354;44.724;11.284;2024-03-23T04:26:47;101286.38;;;16.74
67509;BMP280;54354;44.724;11.284;2024-03-23T04:29:13;101283.81;;;16.71
67509;BMP280;54354;44.724;11.284;2024-03-23T04:31:38;101280.53;;;16.67
67509;BMP280;54354;44.724;11.284;2024-03-23T04:34:04;101276.03;;;16.64
67509;BMP280;54354;44.724;11.284;2024-03-23T04:36:29;101276.03;;;16.64
67509;BMP280;54354;44.724;11.284;2024-03-23T04:38:56;101270.38;;;16.62
67509;BMP280;54354;44.724;11.284;2024-03-23T04:41:21;101274.34;;;16.57
67509;BMP280;54354;44.724;11.284;2024-03-23T04:43:47;101275.34;;;16.51
67509;BMP280;54354;44.724;11.284;2024-03-23T04:46:12;101275.13;;;16.45
67509;BMP280;54354;44.724;11.284;2024-03-23T04:48:37;101272.28;;;16.39
67509;BMP280;54354;44.724;11.284;2024-03-23T04:51:03;101269.69;;;16.36
67509;BMP280;54354;44.724;11.284;2024-03-23T04:53:29;101264.91;;;16.31
67509;BMP280;54354;44.724;11.284;2024-03-23T04:55:57;101271.53;;;16.26
67509;BMP280;54354;44.724;11.284;2024-03-23T04:58:24;101270.59;;;16.20
67509;BMP280;54354;44.724;11.284;2024-03-23T05:00:55;101269.63;;;16.14
67509;BMP280;54354;44.724;11.284;2024-03-23T05:03:21;101270.94;;;16.09
67509;BMP280;54354;44.724;11.284;2024-03-23T05:05:47;101265.28;;;16.07
67509;BMP280;54354;44.724;11.284;2024-03-23T05:08:13;101264.63;;;16.03
67509;BMP280;54354;44.724;11.284;2024-03-23T05:10:38;101259.72;;;16.02
67509;BMP280;54354;44.724;11.284;2024-03-23T05:13:04;101254.38;;;16.02
67509;BMP280;54354;44.724;11.284;2024-03-23T05:15:29;101253.53;;;16.05
67509;BMP280;54354;44.724;11.284;2024-03-23T05:17:55;101251.94;;;16.07
67509;BMP280;54354;44.724;11.284;2024-03-23T05:20:20;101258.31;;;16.10
67509;BMP280;54354;44.724;11.284;2024-03-23T05:22:46;101249.75;;;16.15
67509;BMP280;54354;44.724;11.284;2024-03-23T05:25:11;101254.69;;;16.16
67509;BMP280;54354;44.724;11.284;2024-03-23T05:27:37;101252.75;;;16.17
67509;BMP280;54354;44.724;11.284;2024-03-23T05:30:02;101243.25;;;16.16
67509;BMP280;54354;44.724;11.284;2024-03-23T05:32:29;101244.00;;;16.16
67509;BMP280;54354;44.724;11.284;2024-03-23T05:34:54;101242.06;;;16.17
67509;BMP280;54354;44.724;11.284;2024-03-23T05:37:23;101238.84;;;16.22
67509;BMP280;54354;44.724;11.284;2024-03-23T05:39:49;101248.88;;;16.31
67509;BMP280;54354;44.724;11.284;2024-03-23T05:42:17;101245.09;;;16.41
67509;BMP280;54354;44.724;11.284;2024-03-23T05:44:46;101244.88;;;16.48
67509;BMP280;54354;44.724;11.284;2024-03-23T05:47:11;101240.16;;;16.52
67509;BMP280;54354;44.724;11.284;2024-03-23T05:49:39;101227.72;;;16.58
67509;BMP280;54354;44.724;11.284;2024-03-23T05:52:05;101235.59;;;16.62
67509;BMP280;54354;44.724;11.284;2024-03-23T05:54:30;101232.06;;;16.65
67509;BMP280;54354;44.724;11.284;2024-03-23T05:56:55;101231.94;;;16.68
67509;BMP280;54354;44.724;11.284;2024-03-23T05:59:21;101239.09;;;16.71
67509;BMP280;54354;44.724;11.284;2024-03-23T06:01:47;101234.53;;;16.72
67509;BMP280;54354;44.724;11.284;2024-03-23T06:04:12;101238.38;;;16.71
67509;BMP280;54354;44.724;11.284;2024-03-23T06:06:39;101237.06;;;16.75
67509;BMP280;54354;44.724;11.284;2024-03-23T06:09:04;101236.78;;;16.83
67509;BMP280;54354;44.724;11.284;2024-03-23T06:11:29;101233.13;;;16.89
67509;BMP280;54354;44.724;11.284;2024-03-23T06:13:55;101234.06;;;16.95
67509;BMP280;54354;44.724;11.284;2024-03-23T06:16:20;101229.63;;;17.01
67509;BMP280;54354;44.724;11.284;2024-03-23T06:18:49;101229.50;;;17.05
67509;BMP280;54354;44.724;11.284;2024-03-23T06:21:14;101225.41;;;17.13
67509;BMP280;54354;44.724;11.284;2024-03-23T06:23:40;101219.44;;;17.18
67509;BMP280;54354;44.724;11.284;2024-03-23T06:26:06;101216.09;;;17.27
67509;BMP280;54354;44.724;11.284;2024-03-23T06:28:31;101222.66;;;17.35
67509;BMP280;54354;44.724;11.284;2024-03-23T06:30:56;101228.78;;;17.45
67509;BMP280;54354;44.724;11.284;2024-03-23T06:33:22;101222.28;;;17.55
67509;BMP280;54354;44.724;11.284;2024-03-23T06:35:50;101217.09;;;17.70
67509;BMP280;54354;44.724;11.284;2024-03-23T06:38:17;101217.28;;;17.84
67509;BMP280;54354;44.724;11.284;2024-03-23T06:40:42;101224.00;;;17.98
67509;BMP280;54354;44.724;11.284;2024-03-23T06:43:07;101217.78;;;18.10
67509;BMP280;54354;44.724;11.284;2024-03-23T06:45:33;101224.78;;;18.26
67509;BMP280;54354;44.724;11.284;2024-03-23T06:47:59;101216.44;;;18.42
67509;BMP280;54354;44.724;11.284;2024-03-23T06:50:24;101214.31;;;18.56
67509;BMP280;54354;44.724;11.284;2024-03-23T06:52:50;101212.94;;;18.69
67509;BMP280;54354;44.724;11.284;2024-03-23T06:55:15;101219.34;;;18.81
67509;BMP280;54354;44.724;11.284;2024-03-23T06:57:40;101212.31;;;18.93
67509;BMP280;54354;44.724;11.284;2024-03-23T07:00:06;101211.81;;;19.04
67509;BMP280;54354;44.724;11.284;2024-03-23T07:02:35;101214.16;;;19.11
67509;BMP280;54354;44.724;11.284;2024-03-23T07:05:00;101208.91;;;19.25
67509;BMP280;54354;44.724;11.284;2024-03-23T07:07:25;101205.38;;;19.43
67509;BMP280;54354;44.724;11.284;2024-03-23T07:09:52;101201.19;;;19.66
67509;BMP280;54354;44.724;11.284;2024-03-23T07:12:17;101199.69;;;19.89
67509;BMP280;54354;44.724;11.284;2024-03-23T07:14:43;101204.44;;;20.09
67509;BMP280;54354;44.724;11.284;2024-03-23T07:17:08;101195.38;;;20.36
67509;BMP280;54354;44.724;11.284;2024-03-23T07:19:33;101194.81;;;20.61
67509;BMP280;54354;44.724;11.284;2024-03-23T07:21:59;101192.47;;;20.84
67509;BMP280;54354;44.724;11.284;2024-03-23T07:24:24;101189.88;;;21.10
67509;BMP280;54354;44.724;11.284;2024-03-23T07:26:50;101192.75;;;21.41
67509;BMP280;54354;44.724;11.284;2024-03-23T07:29:16;101187.88;;;21.66
67509;BMP280;54354;44.724;11.284;2024-03-23T07:31:41;101180.22;;;21.84
67509;BMP280;54354;44.724;11.284;2024-03-23T07:34:07;101178.91;;;22.00
67509;BMP280;54354;44.724;11.284;2024-03-23T07:36:32;101176.78;;;22.10
67509;BMP280;54354;44.724;11.284;2024-03-23T07:38:57;101174.41;;;22.17
67509;BMP280;54354;44.724;11.284;2024-03-23T07:41:23;101169.25;;;22.19
67509;BMP280;54354;44.724;11.284;2024-03-23T07:43:48;101162.72;;;22.26
67509;BMP280;54354;44.724;11.284;2024-03-23T07:46:15;101157.94;;;22.47
67509;BMP280;54354;44.724;11.284;2024-03-23T07:51:22;101149.97;;;23.23
67509;BMP280;54354;44.724;11.284;2024-03-23T07:53:48;101149.84;;;23.66
67509;BMP280;54354;44.724;11.284;2024-03-23T07:56:14;101143.69;;;24.10
67509;BMP280;54354;44.724;11.284;2024-03-23T07:58:44;101141.09;;;24.57
67509;BMP280;54354;44.724;11.284;2024-03-23T08:01:13;101136.50;;;24.99
67509;BMP280;54354;44.724;11.284;2024-03-23T08:03:40;101141.44;;;25.41
67509;BMP280;54354;44.724;11.284;2024-03-23T08:06:06;101130.25;;;25.86
67509;BMP280;54354;44.724;11.284;2024-03-23T08:08:31;101124.69;;;26.22
67509;BMP280;54354;44.724;11.284;2024-03-23T08:10:57;101127.31;;;26.52
67509;BMP280;54354;44.724;11.284;2024-03-23T08:13:22;101121.47;;;26.66
67509;BMP280;54354;44.724;11.284;2024-03-23T08:15:47;101128.78;;;26.71
67509;BMP280;54354;44.724;11.284;2024-03-23T08:18:13;101128.31;;;26.73
67509;BMP280;54354;44.724;11.284;2024-03-23T08:20:38;101122.78;;;26.79
67509;BMP280;54354;44.724;11.284;2024-03-23T08:23:06;101128.97;;;26.79
67509;BMP280;54354;44.724;11.284;2024-03-23T08:25:32;101113.78;;;26.84
67509;BMP280;54354;44.724;11.284;2024-03-23T08:27:58;101131.00;;;26.92
67509;BMP280;54354;44.724;11.284;2024-03-23T08:30:23;101116.50;;;27.02
67509;BMP280;54354;44.724;11.284;2024-03-23T08:32:49;101119.50;;;27.18
67509;BMP280;54354;44.724;11.284;2024-03-23T08:35:14;101117.78;;;27.33
67509;BMP280;54354;44.724;11.284;2024-03-23T08:37:39;101128.47;;;27.45
67509;BMP280;54354;44.724;11.284;2024-03-23T08:40:05;101112.66;;;27.43
67509;BMP280;54354;44.724;11.284;2024-03-23T08:42:30;101111.91;;;27.29
67509;BMP280;54354;44.724;11.284;2024-03-23T08:44:55;101104.53;;;27.11
67509;BMP280;54354;44.724;11.284;2024-03-23T08:47:21;101108.94;;;26.95
67509;BMP280;54354;44.724;11.284;2024-03-23T08:49:46;101111.47;;;26.74
67509;BMP280;54354;44.724;11.284;2024-03-23T08:52:12;101097.88;;;26.56
67509;BMP280;54354;44.724;11.284;2024-03-23T08:54:37;101099.28;;;26.43
67509;BMP280;54354;44.724;11.284;2024-03-23T08:57:03;101086.03;;;26.34
67509;BMP280;54354;44.724;11.284;2024-03-23T08:59:29;101075.03;;;26.27
67509;BMP280;54354;44.724;11.284;2024-03-23T09:01:54;101061.00;;;26.23
67509;BMP280;54354;44.724;11.284;2024-03-23T09:04:19;101057.09;;;26.18
67509;BMP280;54354;44.724;11.284;2024-03-23T09:06:46;101070.00;;;26.12
67509;BMP280;54354;44.724;11.284;2024-03-23T09:09:12;101069.56;;;26.08
67509;BMP280;54354;44.724;11.284;2024-03-23T09:11:37;101077.28;;;26.04
67509;BMP280;54354;44.724;11.284;2024-03-23T09:14:02;101078.06;;;25.99
67509;BMP280;54354;44.724;11.284;2024-03-23T09:16:28;101085.00;;;25.94
67509;BMP280;54354;44.724;11.284;2024-03-23T09:18:53;101073.72;;;25.90
67509;BMP280;54354;44.724;11.284;2024-03-23T09:21:18;101067.78;;;25.92
67509;BMP280;54354;44.724;11.284;2024-03-23T09:23:44;101067.28;;;25.93
67509;BMP280;54354;44.724;11.284;2024-03-23T09:26:10;101060.81;;;25.96
67509;BMP280;54354;44.724;11.284;2024-03-23T09:28:35;101057.38;;;25.96
67509;BMP280;54354;44.724;11.284;2024-03-23T09:31:04;101058.63;;;25.95
67509;BMP280;54354;44.724;11.284;2024-03-23T09:33:29;101056.69;;;25.90
67509;BMP280;54354;44.724;11.284;2024-03-23T09:35:55;101048.09;;;25.86
67509;BMP280;54354;44.724;11.284;2024-03-23T09:38:21;101044.47;;;25.77
67509;BMP280;54354;44.724;11.284;2024-03-23T09:40:46;101043.00;;;25.76
67509;BMP280;54354;44.724;11.284;2024-03-23T09:43:13;101042.75;;;25.80
67509;BMP280;54354;44.724;11.284;2024-03-23T09:45:39;101037.06;;;25.78
67509;BMP280;54354;44.724;11.284;2024-03-23T09:48:04;101034.44;;;25.72
67509;BMP280;54354;44.724;11.284;2024-03-23T09:50:31;101030.31;;;25.66
67509;BMP280;54354;44.724;11.284;2024-03-23T09:52:56;101025.34;;;25.64
67509;BMP280;54354;44.724;11.284;2024-03-23T09:55:21;101022.66;;;25.64
67509;BMP280;54354;44.724;11.284;2024-03-23T09:57:47;101025.84;;;25.68
67509;BMP280;54354;44.724;11.284;2024-03-23T10:00:12;101030.03;;;25.69
67509;BMP280;54354;44.724;11.284;2024-03-23T10:02:38;101032.00;;;25.69
67509;BMP280;54354;44.724;11.284;2024-03-23T10:05:03;101030.50;;;25.68
67509;BMP280;54354;44.724;11.284;2024-03-23T10:07:29;101023.38;;;25.65
67509;BMP280;54354;44.724;11.284;2024-03-23T10:09:54;101020.19;;;25.66
67509;BMP280;54354;44.724;11.284;2024-03-23T10:12:20;101022.66;;;25.64
67509;BMP280;54354;44.724;11.284;2024-03-23T10:14:46;101022.44;;;25.62
67509;BMP280;54354;44.724;11.284;2024-03-23T10:19:38;101014.03;;;25.66
67509;BMP280;54354;44.724;11.284;2024-03-23T10:22:04;101005.31;;;25.73
67509;BMP280;54354;44.724;11.284;2024-03-23T10:24:29;101001.59;;;25.76
67509;BMP280;54354;44.724;11.284;2024-03-23T10:26:58;101000.41;;;25.71
67509;BMP280;54354;44.724;11.284;2024-03-23T10:29:23;100984.47;;;25.62
67509;BMP280;54354;44.724;11.284;2024-03-23T10:31:48;100986.97;;;25.60
67509;BMP280;54354;44.724;11.284;2024-03-23T10:34:14;100984.97;;;25.61
67509;BMP280;54354;44.724;11.284;2024-03-23T10:36:40;100983.53;;;25.60
67509;BMP280;54354;44.724;11.284;2024-03-23T10:39:07;100979.84;;;25.57
67509;BMP280;54354;44.724;11.284;2024-03-23T10:41:32;100983.56;;;25.54
67509;BMP280;54354;44.724;11.284;2024-03-23T10:43:58;100972.19;;;25.56
67509;BMP280;54354;44.724;11.284;2024-03-23T10:46:24;100966.72;;;25.61
67509;BMP280;54354;44.724;11.284;2024-03-23T10:48:50;100964.91;;;25.69
67509;BMP280;54354;44.724;11.284;2024-03-23T10:51:15;100964.84;;;25.75
67509;BMP280;54354;44.724;11.284;2024-03-23T10:53:40;100951.72;;;25.79
67509;BMP280;54354;44.724;11.284;2024-03-23T10:56:06;100947.25;;;25.81
67509;BMP280;54354;44.724;11.284;2024-03-23T10:58:35;100937.13;;;25.82
67509;BMP280;54354;44.724;11.284;2024-03-23T11:01:02;100927.25;;;25.85
67509;BMP280;54354;44.724;11.284;2024-03-23T11:03:31;100924.97;;;25.89
67509;BMP280;54354;44.724;11.284;2024-03-23T11:05:56;100912.09;;;25.95
67509;BMP280;54354;44.724;11.284;2024-03-23T11:08:35;100904.38;;;25.99
67509;BMP280;54354;44.724;11.284;2024-03-23T11:11:13;100907.59;;;25.97
67509;BMP280;54354;44.724;11.284;2024-03-23T11:13:39;100909.16;;;25.93
67509;BMP280;54354;44.724;11.284;2024-03-23T11:18:39;100912.91;;;25.90
67509;BMP280;54354;44.724;11.284;2024-03-23T11:21:06;100908.59;;;25.94
67509;BMP280;54354;44.724;11.284;2024-03-23T11:23:31;100905.13;;;25.99
67509;BMP280;54354;44.724;11.284;2024-03-23T11:25:57;100891.25;;;26.03
67509;BMP280;54354;44.724;11.284;2024-03-23T11:28:22;100886.28;;;26.07
67509;BMP280;54354;44.724;11.284;2024-03-23T11:30:47;100875.81;;;26.11
67509;BMP280;54354;44.724;11.284;2024-03-23T11:33:13;100864.19;;;26.16
67509;BMP280;54354;44.724;11.284;2024-03-23T11:35:39;100850.53;;;26.22
67509;BMP280;54354;44.724;11.284;2024-03-23T11:40:30;100847.41;;;26.31
67509;BMP280;54354;44.724;11.284;2024-03-23T11:42:59;100849.81;;;26.34
67509;BMP280;54354;44.724;11.284;2024-03-23T11:45:24;100853.69;;;26.39
67509;BMP280;54354;44.724;11.284;2024-03-23T11:48:01;100858.69;;;26.35
67509;BMP280;54354;44.724;11.284;2024-03-23T11:50:26;100863.06;;;26.25
67509;BMP280;54354;44.724;11.284;2024-03-23T11:52:52;100848.63;;;26.17
67509;BMP280;54354;44.724;11.284;2024-03-23T11:55:17;100838.72;;;26.19
67509;BMP280;54354;44.724;11.284;2024-03-23T11:57:42;100829.22;;;26.26
67509;BMP280;54354;44.724;11.284;2024-03-23T12:00:20;100825.16;;;26.32
67509;BMP280;54354;44.724;11.284;2024-03-23T12:02:46;100821.88;;;26.39
67509;BMP280;54354;44.724;11.284;2024-03-23T12:05:15;100817.06;;;26.46
67509;BMP280;54354;44.724;11.284;2024-03-23T12:07:40;100811.53;;;26.51
67509;BMP280;54354;44.724;11.284;2024-03-23T12:10:06;100807.13;;;26.48
67509;BMP280;54354;44.724;11.284;2024-03-23T12:12:31;100798.34;;;26.42
67509;BMP280;54354;44.724;11.284;2024-03-23T12:15:04;100787.78;;;26.38
67509;BMP280;54354;44.724;11.284;2024-03-23T12:17:31;100787.59;;;26.36
67509;BMP280;54354;44.724;11.284;2024-03-23T12:19:56;100782.91;;;26.37
67509;BMP280;54354;44.724;11.284;2024-03-23T12:22:22;100769.72;;;26.41
67509;BMP280;54354;44.724;11.284;2024-03-23T12:24:48;100771.19;;;26.42
67509;BMP280;54354;44.724;11.284;2024-03-23T12:27:13;100764.72;;;26.45
67509;BMP280;54354;44.724;11.284;2024-03-23T12:29:40;100770.03;;;26.51
67509;BMP280;54354;44.724;11.284;2024-03-23T12:32:07;100776.13;;;26.57
67509;BMP280;54354;44.724;11.284;2024-03-23T12:34:32;100769.38;;;26.63
67509;BMP280;54354;44.724;11.284;2024-03-23T12:36:58;100768.72;;;26.70
67509;BMP280;54354;44.724;11.284;2024-03-23T12:39:23;100754.50;;;26.78
67509;BMP280;54354;44.724;11.284;2024-03-23T12:41:49;100750.22;;;26.82
67509;BMP280;54354;44.724;11.284;2024-03-23T12:44:15;100739.03;;;26.86
67509;BMP280;54354;44.724;11.284;2024-03-23T12:46:43;100718.13;;;26.81
67509;BMP280;54354;44.724;11.284;2024-03-23T12:49:09;100708.84;;;26.76
67509;BMP280;54354;44.724;11.284;2024-03-23T12:51:35;100704.69;;;26.75
67509;BMP280;54354;44.724;11.284;2024-03-23T12:54:00;100711.56;;;26.76
67509;BMP280;54354;44.724;11.284;2024-03-23T12:56:26;100712.31;;;26.63
67509;BMP280;54354;44.724;11.284;2024-03-23T12:58:53;100706.56;;;26.54
67509;BMP280;54354;44.724;11.284;2024-03-23T13:01:20;100702.69;;;26.49
67509;BMP280;54354;44.724;11.284;2024-03-23T13:03:48;100688.56;;;26.51
67509;BMP280;54354;44.724;11.284;2024-03-23T13:06:14;100687.63;;;26.48
67509;BMP280;54354;44.724;11.284;2024-03-23T13:08:39;100673.16;;;26.46
67509;BMP280;54354;44.724;11.284;2024-03-23T13:11:09;100671.91;;;26.47
67509;BMP280;54354;44.724;11.284;2024-03-23T13:13:38;100666.34;;;26.52
67509;BMP280;54354;44.724;11.284;2024-03-23T13:16:04;100658.41;;;26.54
67509;BMP280;54354;44.724;11.284;2024-03-23T13:18:30;100655.38;;;26.58
67509;BMP280;54354;44.724;11.284;2024-03-23T13:20:56;100652.13;;;26.59
67509;BMP280;54354;44.724;11.284;2024-03-23T13:23:21;100649.63;;;26.61
67509;BMP280;54354;44.724;11.284;2024-03-23T13:25:50;100653.28;;;26.64
67509;BMP280;54354;44.724;11.284;2024-03-23T13:28:16;100654.00;;;26.64
67509;BMP280;54354;44.724;11.284;2024-03-23T13:30:49;100648.38;;;26.62
67509;BMP280;54354;44.724;11.284;2024-03-23T13:33:14;100638.22;;;26.63
67509;BMP280;54354;44.724;11.284;2024-03-23T13:35:40;100620.69;;;26.64
67509;BMP280;54354;44.724;11.284;2024-03-23T13:38:13;100614.44;;;26.56
67509;BMP280;54354;44.724;11.284;2024-03-23T13:40:40;100633.66;;;26.44
67509;BMP280;54354;44.724;11.284;2024-03-23T13:43:14;100626.78;;;26.43
67509;BMP280;54354;44.724;11.284;2024-03-23T13:45:39;100631.91;;;26.47
67509;BMP280;54354;44.724;11.284;2024-03-23T13:48:04;100630.44;;;26.46
67509;BMP280;54354;44.724;11.284;2024-03-23T13:50:33;100617.59;;;26.47
67509;BMP280;54354;44.724;11.284;2024-03-23T13:52:59;100599.72;;;26.51
67509;BMP280;54354;44.724;11.284;2024-03-23T13:55:25;100597.19;;;26.53
67509;BMP280;54354;44.724;11.284;2024-03-23T13:57:50;100595.22;;;26.54
67509;BMP280;54354;44.724;11.284;2024-03-23T14:00:16;100576.19;;;26.54
67509;BMP280;54354;44.724;11.284;2024-03-23T14:02:43;100583.50;;;26.59
67509;BMP280;54354;44.724;11.284;2024-03-23T14:05:08;100565.66;;;26.63
67509;BMP280;54354;44.724;11.284;2024-03-23T14:07:34;100560.72;;;26.62
67509;BMP280;54354;44.724;11.284;2024-03-23T14:10:03;100554.03;;;26.63
67509;BMP280;54354;44.724;11.284;2024-03-23T14:12:28;100554.22;;;26.65
67509;BMP280;54354;44.724;11.284;2024-03-23T14:14:54;100552.78;;;26.64
67509;BMP280;54354;44.724;11.284;2024-03-23T14:17:20;100548.31;;;26.66
67509;BMP280;54354;44.724;11.284;2024-03-23T14:19:51;100554.44;;;26.67
67509;BMP280;54354;44.724;11.284;2024-03-23T14:22:19;100552.44;;;26.67
67509;BMP280;54354;44.724;11.284;2024-03-23T14:24:48;100553.59;;;26.72
67509;BMP280;54354;44.724;11.284;2024-03-23T14:27:17;100556.16;;;26.78
67509;BMP280;54354;44.724;11.284;2024-03-23T14:29:50;100552.25;;;26.86
67509;BMP280;54354;44.724;11.284;2024-03-23T14:32:16;100547.97;;;26.91
67509;BMP280;54354;44.724;11.284;2024-03-23T14:34:41;100540.22;;;26.95
67509;BMP280;54354;44.724;11.284;2024-03-23T14:37:12;100546.38;;;26.95
67509;BMP280;54354;44.724;11.284;2024-03-23T14:39:41;100554.88;;;26.92